CYZFCYVQ

Guest
Details From CYZF - Yellowknife
To CYVQ - Norman Wells
Flight Number -
Tags Generated
Created
Modified
Stats Distance 367 nm / 680 km
Max Altitude 0 ft / 0 m
Waypoints 3
Social Downloads 4
Likes 0
Share VATSIM

Download

Looking for another format? Having issues loading an existing format? Contact us
Advertisement - Login to hide

Notes

Generated

Route

CYZF YVQ CYVQ

ID Type Via Altitude Latitude Longitude Leg Dist Tot Dist Heading (true) Name
O CYZF APT - 0 ft / 0 m 62.47133˚ -114.45350˚ - 0 nm - -
YVQ VOR - 0 ft / 0 m 65.26425˚ -126.72517˚ 364 nm 364 nm 303° / 292° -
O CYVQ APT - 0 ft / 0 m 65.28556˚ -126.81539˚ 2 nm 367 nm 299° / 299° -

Altitude Profile

Advertisement - Login to hide

Weather


0- 5 10 15 20 25 30 35+ Temperature / ° C

Clouds and Precipitation
Forecast for 2017-12-11 18:00 UTC. Updated 34 minutes ago

Ground ~20,000 ft ~40,000 ft Winds

CYZF

Details ICAO CYZF (YZF)
Name YELLOWKNIFE
Region Canada
Timezone America/Yellowknife (UTC-7.0)
Stats Elevation 675 ft / 206 m (AMSL)
Location 62.465666° -114.441417°
Runways 2
Magnetic Variation 16.587° E

METAR

CYZF 111530Z 12007KT 4SM -SN OVC003 M15/M17 A3016 RMK ST8 SLP240

Decode

TAF

TAF AMD CYZF 111411Z 1114/1212 11005KT P6SM -SN SCT002 OVC008 TEMPO 1114/1122 2SM -SN BKN002 OVC006 FM112200 11012KT P6SM SCT015 BKN060 TEMPO 1122/1202 P6SM -SN SCT008 BKN015 OVC060 FM120200 12015KT 6SM -SN SCT008 OVC040 FM120500 12012KT P6SM -SN SCT012 BKN080 RMK NXT FCST BY 111800Z

Decode

Departure Runways

ID Width Length Bearing (true) Bearing (mag) Surface Threshold Offset Overrun Length
09 150 ft / 46 m 4,902 ft / 1,494 m 116.52° 99.93° Asphalt 0 ft / 0 m 0 ft / 0 m
15 150 ft / 46 m 7,441 ft / 2,268 m 175.66° 159.07° Asphalt 0 ft / 0 m 0 ft / 0 m
27 150 ft / 46 m 4,902 ft / 1,494 m 296.54° 279.95° Asphalt 0 ft / 0 m 0 ft / 0 m
33 150 ft / 46 m 7,441 ft / 2,268 m 355.67° 339.08° Asphalt 0 ft / 0 m 0 ft / 0 m

CYVQ

Details ICAO CYVQ (YVQ)
Name NORMAN WELLS
Region Canada
Timezone America/Yellowknife (UTC-7.0)
Stats Elevation 238 ft / 73 m (AMSL)
Location 65.281616° -126.798222°
Runways 1
Magnetic Variation 21.036° E

METAR

CYVQ 111500Z 10007KT 30SM BKN100 BKN230 M08/M10 A2976 RMK AC6CI1 PRESFR SLP086

Decode

TAF

TAF CYVQ 111138Z 1112/1124 12008KT P6SM -SN BKN008 TEMPO 1112/1114 P6SM NSW SCT008 FM111400 12010KT P6SM SCT012 TEMPO 1114/1116 BKN012 FM111600 12012KT P6SM SCT140 BKN240 BECMG 1122/1124 12005KT RMK NXT FCST BY 111800Z

Decode

Destination Runways

ID Width Length Bearing (true) Bearing (mag) Surface Threshold Offset Overrun Length
09 150 ft / 46 m 5,977 ft / 1,822 m 118.74° 97.70° Asphalt 0 ft / 0 m 0 ft / 0 m
27 150 ft / 46 m 5,977 ft / 1,822 m 298.78° 277.74° Asphalt 0 ft / 0 m 0 ft / 0 m

Popular Alternatives